createdAt,value
2023-02-08T04:00:35.580Z,0.00
2023-02-08T04:01:35.577Z,0.00
2023-02-08T04:02:35.557Z,0.00
2023-02-08T04:03:35.548Z,0.00
2023-02-08T04:04:35.547Z,0.00
2023-02-08T04:05:35.552Z,0.00
2023-02-08T04:06:35.561Z,0.00
2023-02-08T04:07:35.557Z,0.00
2023-02-08T04:08:35.551Z,0.00
2023-02-08T04:09:37.845Z,0.00
2023-02-08T04:10:35.577Z,0.00
2023-02-08T04:11:35.559Z,0.00
2023-02-08T04:12:35.559Z,0.00
2023-02-08T04:13:35.556Z,0.00
2023-02-08T04:14:33.877Z,0.00
2023-02-08T04:15:35.111Z,0.00
2023-02-08T04:16:35.602Z,0.00
2023-02-08T04:17:35.069Z,0.00
2023-02-08T04:18:34.867Z,0.00
2023-02-08T04:19:34.846Z,0.00
2023-02-08T04:20:34.838Z,0.00
2023-02-08T04:21:34.836Z,0.00
2023-02-08T04:22:35.578Z,0.00
2023-02-08T04:23:35.072Z,0.00
2023-02-08T04:24:33.817Z,0.00
2023-02-08T04:25:35.078Z,0.00
2023-02-08T04:26:34.802Z,0.00
2023-02-08T04:27:35.579Z,0.00
2023-02-08T04:28:35.584Z,0.00
2023-02-08T04:29:33.794Z,0.00
2023-02-08T04:30:35.608Z,0.00
2023-02-08T04:31:34.864Z,0.00
2023-02-08T04:32:35.617Z,0.00
2023-02-08T04:33:35.572Z,0.00
2023-02-08T04:34:35.572Z,0.00
2023-02-08T04:35:35.572Z,0.00
2023-02-08T04:36:35.611Z,0.00
2023-02-08T04:37:35.584Z,0.00
2023-02-08T04:38:35.578Z,0.00
2023-02-08T04:39:35.575Z,0.00
2023-02-08T04:40:34.740Z,0.00
2023-02-08T04:41:35.096Z,0.00
2023-02-08T04:42:33.726Z,0.00
2023-02-08T04:43:33.730Z,0.00
2023-02-08T04:44:33.721Z,0.00
2023-02-08T04:45:33.769Z,0.00
2023-02-08T04:46:35.106Z,0.00
2023-02-08T04:47:33.705Z,0.00
2023-02-08T04:48:35.122Z,0.00
2023-02-08T04:49:35.588Z,0.00
2023-02-08T04:50:35.618Z,0.00
2023-02-08T04:51:35.599Z,0.00
2023-02-08T04:52:35.587Z,0.00
2023-02-08T04:53:35.590Z,0.00
2023-02-08T04:54:35.599Z,0.00
2023-02-08T04:55:35.600Z,0.00
2023-02-08T04:56:35.608Z,0.00
2023-02-08T04:57:35.596Z,0.00
2023-02-08T04:58:34.649Z,0.00
2023-02-08T04:59:35.624Z,0.00
2023-02-08T05:00:35.596Z,0.00
2023-02-08T05:01:35.622Z,0.00
2023-02-08T05:02:35.598Z,0.00
2023-02-08T05:03:35.598Z,0.00
2023-02-08T05:04:35.625Z,0.00
2023-02-08T05:05:35.611Z,0.00
2023-02-08T05:06:35.122Z,0.00
2023-02-08T05:07:35.097Z,0.00
2023-02-08T05:08:35.103Z,0.00
2023-02-08T05:09:34.618Z,0.00
2023-02-08T05:10:35.108Z,0.00
2023-02-08T05:11:34.576Z,0.00
2023-02-08T05:12:34.568Z,0.00
2023-02-08T05:13:34.566Z,0.00
2023-02-08T05:14:34.570Z,0.00
2023-02-08T05:15:35.144Z,0.00
2023-02-08T05:16:34.552Z,0.00
2023-02-08T05:17:34.558Z,0.00
2023-02-08T05:18:34.620Z,0.00
2023-02-08T05:19:34.547Z,0.00
2023-02-08T05:20:35.135Z,0.00
2023-02-08T05:21:35.117Z,0.00
2023-02-08T05:22:35.104Z,0.00
2023-02-08T05:23:35.121Z,0.00
2023-02-08T05:24:35.109Z,0.00
2023-02-08T05:25:35.128Z,0.00
2023-02-08T05:26:35.111Z,0.00
2023-02-08T05:27:35.122Z,0.00
2023-02-08T05:28:35.121Z,0.00
2023-02-08T05:29:35.131Z,0.00
2023-02-08T05:30:35.110Z,0.00
2023-02-08T05:31:35.253Z,0.00
2023-02-08T05:32:35.133Z,0.00
2023-02-08T05:33:35.118Z,0.00
2023-02-08T05:34:35.126Z,0.00
2023-02-08T05:35:35.121Z,0.00
2023-02-08T05:36:35.127Z,0.00
2023-02-08T05:37:35.156Z,0.00
2023-02-08T05:38:35.139Z,0.00
2023-02-08T05:39:35.117Z,0.00
2023-02-08T05:40:35.124Z,0.00
2023-02-08T05:41:35.152Z,0.00
2023-02-08T05:42:35.119Z,0.00
2023-02-08T05:43:35.135Z,0.00
2023-02-08T05:44:34.406Z,0.00
2023-02-08T05:45:35.144Z,0.00
2023-02-08T05:46:36.524Z,0.00
2023-02-08T05:47:35.123Z,0.00
2023-02-08T05:48:35.120Z,0.00
2023-02-08T05:49:34.385Z,0.00
2023-02-08T05:50:33.379Z,0.00
2023-02-08T05:51:34.638Z,0.00
2023-02-08T05:52:34.382Z,0.00
2023-02-08T05:53:34.364Z,0.00
2023-02-08T05:54:34.367Z,0.00
2023-02-08T05:55:33.353Z,0.00
2023-02-08T05:56:35.146Z,0.00
2023-02-08T05:57:35.678Z,0.00
2023-02-08T05:58:35.140Z,0.00
2023-02-08T05:59:34.341Z,0.00
2023-02-08T06:00:35.154Z,0.00
2023-02-08T06:01:33.323Z,0.00
2023-02-08T06:02:35.131Z,0.00
2023-02-08T06:03:35.150Z,0.00
2023-02-08T06:04:34.315Z,0.00
2023-02-08T06:05:35.142Z,0.00
2023-02-08T06:06:35.144Z,0.00
2023-02-08T06:07:34.295Z,0.00
2023-02-08T06:08:35.158Z,0.00
2023-02-08T06:09:34.285Z,0.00
2023-02-08T06:10:35.136Z,0.00
2023-02-08T06:11:35.187Z,0.00
2023-02-08T06:12:35.144Z,0.00
2023-02-08T06:13:33.282Z,0.00
2023-02-08T06:14:33.256Z,0.00
2023-02-08T06:15:35.187Z,0.00
2023-02-08T06:16:33.269Z,0.00
2023-02-08T06:17:33.252Z,0.00
2023-02-08T06:18:33.244Z,0.00
2023-02-08T06:19:33.248Z,0.00
2023-02-08T06:20:34.660Z,0.00
2023-02-08T06:21:34.657Z,0.00
2023-02-08T06:22:33.232Z,0.00
2023-02-08T06:23:34.222Z,0.00
2023-02-08T06:24:35.168Z,0.00
2023-02-08T06:25:35.151Z,4.00
2023-02-08T06:26:35.164Z,4.00
2023-02-08T06:27:35.149Z,0.00
2023-02-08T06:28:35.147Z,0.00
2023-02-08T06:29:35.148Z,4.00
2023-02-08T06:30:35.150Z,0.00
2023-02-08T06:31:35.193Z,4.00
2023-02-08T06:32:33.365Z,4.00
2023-02-08T06:33:34.180Z,4.00
2023-02-08T06:34:34.672Z,4.00
2023-02-08T06:35:34.668Z,8.00
2023-02-08T06:36:34.682Z,8.00
2023-02-08T06:37:34.665Z,8.00
2023-02-08T06:38:33.144Z,8.00
2023-02-08T06:39:34.152Z,12.00
2023-02-08T06:40:34.670Z,12.00
2023-02-08T06:41:34.682Z,16.00
2023-02-08T06:42:34.661Z,20.00
2023-02-08T06:43:34.150Z,20.00
2023-02-08T06:44:34.662Z,24.00
2023-02-08T06:45:33.159Z,24.00
2023-02-08T06:46:34.701Z,32.00
2023-02-08T06:47:34.104Z,32.00
2023-02-08T06:48:33.088Z,36.00
2023-02-08T06:49:33.098Z,40.00
2023-02-08T06:50:34.115Z,48.00
2023-02-08T06:51:35.216Z,52.00
2023-02-08T06:52:34.070Z,56.00
2023-02-08T06:53:34.207Z,64.00
2023-02-08T06:54:33.428Z,72.00
2023-02-08T06:55:33.052Z,76.00
2023-02-08T06:56:33.115Z,80.00
2023-02-08T06:57:34.712Z,88.00
2023-02-08T06:58:34.723Z,100.00
2023-02-08T06:59:33.116Z,104.00
2023-02-08T07:00:33.042Z,112.00
2023-02-08T07:01:34.713Z,120.00
2023-02-08T07:02:34.737Z,128.00
2023-02-08T07:03:33.702Z,140.00
2023-02-08T07:04:34.684Z,148.00
2023-02-08T07:05:34.683Z,152.00
2023-02-08T07:06:34.681Z,164.00
2023-02-08T07:07:34.684Z,172.00
2023-02-08T07:08:34.702Z,184.00
2023-02-08T07:09:34.700Z,192.00
2023-02-08T07:10:34.685Z,204.00
2023-02-08T07:11:34.715Z,212.00
2023-02-08T07:12:34.708Z,220.00
2023-02-08T07:13:34.691Z,228.00
2023-02-08T07:14:32.965Z,236.00
2023-02-08T07:15:32.964Z,248.00
2023-02-08T07:16:33.009Z,252.00
2023-02-08T07:17:34.707Z,264.00
2023-02-08T07:18:32.946Z,276.00
2023-02-08T07:19:32.939Z,288.00
2023-02-08T07:20:34.713Z,300.00
2023-02-08T07:21:34.216Z,308.00
2023-02-08T07:22:32.921Z,316.00
2023-02-08T07:23:34.720Z,324.00
2023-02-08T07:24:32.940Z,332.00
2023-02-08T07:25:34.719Z,336.00
2023-02-08T07:26:33.060Z,344.00
2023-02-08T07:27:34.715Z,356.00
2023-02-08T07:28:33.041Z,368.00
2023-02-08T07:29:34.712Z,380.00
2023-02-08T07:30:32.939Z,396.00
2023-02-08T07:31:35.726Z,404.00
2023-02-08T07:32:34.777Z,412.00
2023-02-08T07:33:34.727Z,424.00
2023-02-08T07:34:34.734Z,432.00
2023-02-08T07:35:34.709Z,440.00
2023-02-08T07:36:32.852Z,452.00
2023-02-08T07:37:34.724Z,460.00
2023-02-08T07:38:34.727Z,472.00
2023-02-08T07:39:34.748Z,476.00
2023-02-08T07:40:34.753Z,484.00
2023-02-08T07:41:34.767Z,496.00
2023-02-08T07:42:34.761Z,500.00
2023-02-08T07:43:34.725Z,508.00
2023-02-08T07:44:34.714Z,512.00
2023-02-08T07:45:34.751Z,520.00
2023-02-08T07:46:34.714Z,528.00
2023-02-08T07:47:34.759Z,536.00
2023-02-08T07:48:34.726Z,544.00
2023-02-08T07:49:32.795Z,548.00
2023-02-08T07:50:32.799Z,556.00
2023-02-08T07:51:32.791Z,564.00
2023-02-08T07:52:32.780Z,568.00
2023-02-08T07:53:34.266Z,576.00
2023-02-08T07:54:32.771Z,584.00
2023-02-08T07:55:32.763Z,588.00
2023-02-08T07:56:32.817Z,596.00
2023-02-08T07:57:34.740Z,604.00
2023-02-08T07:58:33.797Z,608.00
2023-02-08T07:59:34.760Z,616.00
2023-02-08T08:00:35.248Z,620.00
2023-02-08T08:01:34.287Z,628.00
2023-02-08T08:02:34.290Z,636.00
2023-02-08T08:03:32.721Z,644.00
2023-02-08T08:04:34.238Z,800.00
2023-02-08T08:05:34.235Z,1212.00
2023-02-08T08:06:34.243Z,1504.00
2023-02-08T08:07:34.242Z,1564.00
2023-02-08T08:08:34.249Z,1592.00
2023-02-08T08:09:34.286Z,1612.00
2023-02-08T08:10:34.260Z,1628.00
2023-02-08T08:12:34.247Z,1652.00
2023-02-08T08:14:34.243Z,1688.00
2023-02-08T08:15:34.283Z,1716.00
2023-02-08T08:16:34.375Z,1744.00
2023-02-08T08:17:34.242Z,1768.00
2023-02-08T08:18:34.258Z,1776.00
2023-02-08T08:19:34.248Z,1772.00
2023-02-08T08:21:34.260Z,1780.00
2023-02-08T08:22:34.254Z,1796.00
2023-02-08T08:23:34.272Z,1812.00
2023-02-08T08:24:34.261Z,1824.00
2023-02-08T08:25:34.641Z,1836.00
2023-02-08T08:26:34.254Z,1852.00
2023-02-08T08:27:34.267Z,1876.00
2023-02-08T08:28:34.396Z,1884.00
2023-02-08T08:29:34.267Z,1904.00
2023-02-08T08:30:32.637Z,1908.00
2023-02-08T08:31:35.817Z,1916.00
2023-02-08T08:32:32.623Z,1912.00
2023-02-08T08:33:35.831Z,1912.00
2023-02-08T08:34:32.577Z,1912.00
2023-02-08T08:35:35.281Z,1900.00
2023-02-08T08:36:32.708Z,1900.00
2023-02-08T08:37:34.321Z,1912.00
2023-02-08T08:38:32.574Z,1924.00
2023-02-08T08:39:32.583Z,1940.00
2023-02-08T08:40:32.739Z,1944.00
2023-02-08T08:41:32.548Z,1956.00
2023-02-08T08:42:34.289Z,1968.00
2023-02-08T08:43:34.297Z,1988.00
2023-02-08T08:44:34.550Z,2008.00
2023-02-08T08:45:32.547Z,2020.00
2023-02-08T08:46:34.119Z,2032.00
2023-02-08T08:47:32.561Z,2036.00
2023-02-08T08:48:33.021Z,2044.00
2023-02-08T08:49:32.540Z,2056.00
2023-02-08T08:50:34.304Z,2072.00
2023-02-08T08:51:32.641Z,2084.00
2023-02-08T08:52:32.504Z,2096.00
2023-02-08T08:53:32.631Z,2116.00
2023-02-08T08:54:34.494Z,2140.00
2023-02-08T08:55:33.452Z,2152.00
2023-02-08T08:56:32.532Z,2172.00
2023-02-08T08:57:32.490Z,2192.00
2023-02-08T08:58:32.486Z,2208.00
2023-02-08T08:59:34.382Z,2228.00
2023-02-08T09:00:32.478Z,2248.00
2023-02-08T09:01:34.825Z,2264.00
2023-02-08T09:02:34.359Z,2276.00
2023-02-08T09:03:34.846Z,2292.00
2023-02-08T09:04:32.942Z,2304.00
2023-02-08T09:05:32.545Z,2320.00
2023-02-08T09:06:34.287Z,2332.00
2023-02-08T09:07:34.302Z,2344.00
2023-02-08T09:08:34.324Z,2356.00
2023-02-08T09:09:34.296Z,2364.00
2023-02-08T09:10:34.777Z,2376.00
2023-02-08T09:11:32.435Z,2384.00
2023-02-08T09:12:34.432Z,2392.00
2023-02-08T09:13:34.288Z,2400.00
2023-02-08T09:14:34.283Z,2392.00
2023-02-08T09:15:34.286Z,2384.00
2023-02-08T09:16:32.770Z,2380.00
2023-02-08T09:17:34.307Z,2372.00
2023-02-08T09:18:34.305Z,2380.00
2023-02-08T09:19:34.294Z,2384.00
2023-02-08T09:20:37.452Z,2388.00
2023-02-08T09:21:33.086Z,2408.00
2023-02-08T09:22:33.063Z,2424.00
2023-02-08T09:23:34.431Z,2424.00
2023-02-08T09:24:34.412Z,2432.00
2023-02-08T09:25:32.383Z,2424.00
2023-02-08T09:27:33.904Z,2412.00
2023-02-08T09:28:32.405Z,2404.00
2023-02-08T09:29:32.366Z,2412.00
2023-02-08T09:30:32.362Z,2444.00
2023-02-08T09:31:32.478Z,2492.00
2023-02-08T09:32:34.458Z,2508.00
2023-02-08T09:33:32.402Z,2512.00
2023-02-08T09:34:34.331Z,2512.00
2023-02-08T09:36:34.354Z,2536.00
2023-02-08T09:38:34.810Z,2552.00
2023-02-08T09:39:34.328Z,2564.00
2023-02-08T09:40:34.331Z,2568.00
2023-02-08T09:41:34.323Z,2580.00
2023-02-08T09:42:34.317Z,2584.00
2023-02-08T09:43:34.345Z,2588.00
2023-02-08T09:45:34.314Z,2612.00
2023-02-08T09:46:34.922Z,2624.00
2023-02-08T09:47:35.071Z,2628.00
2023-02-08T09:48:33.828Z,2632.00
2023-02-08T09:49:34.041Z,2636.00
2023-02-08T09:50:35.974Z,2644.00
2023-02-08T09:51:34.443Z,2660.00
2023-02-08T09:52:33.445Z,2664.00
2023-02-08T09:53:33.824Z,2668.00
2023-02-08T09:54:33.828Z,2680.00
2023-02-08T09:55:33.879Z,2696.00
2023-02-08T09:56:34.216Z,2700.00
2023-02-08T09:58:34.466Z,2724.00
2023-02-08T09:59:34.049Z,2728.00
2023-02-08T10:00:33.892Z,2732.00
2023-02-08T10:01:32.297Z,2740.00
2023-02-08T10:02:33.999Z,2748.00
2023-02-08T10:13:47.423Z,2848.00
2023-02-08T10:15:47.386Z,2860.00
2023-02-08T10:16:47.383Z,2864.00
2023-02-08T10:17:49.198Z,2868.00
2023-02-08T10:18:47.364Z,2872.00
2023-02-08T10:19:50.583Z,2860.00
2023-02-08T10:20:47.451Z,2872.00
2023-02-08T10:21:47.378Z,2868.00
2023-02-08T10:22:47.457Z,2892.00
2023-02-08T10:23:47.358Z,2896.00
2023-02-08T10:24:49.178Z,2904.00
2023-02-08T10:25:47.528Z,2920.00
2023-02-08T10:26:47.515Z,2912.00
2023-02-08T10:27:48.044Z,2912.00
2023-02-08T10:28:47.801Z,2920.00
2023-02-08T10:29:49.346Z,2924.00
2023-02-08T10:30:47.716Z,2932.00
2023-02-08T10:31:49.394Z,2940.00
2023-02-08T10:32:47.546Z,2928.00
2023-02-08T10:33:47.414Z,2912.00
2023-02-08T10:34:48.419Z,2932.00
2023-02-08T10:35:47.346Z,2940.00
2023-02-08T10:36:47.543Z,2900.00
2023-02-08T10:37:47.511Z,2852.00
2023-02-08T10:38:47.470Z,2912.00
2023-02-08T10:39:49.157Z,2996.00
2023-02-08T10:40:47.438Z,3012.00
2023-02-08T10:41:49.175Z,3004.00
2023-02-08T10:42:47.876Z,2948.00
2023-02-08T10:43:47.858Z,2916.00
2023-02-08T10:44:48.435Z,2900.00
2023-02-08T10:45:47.545Z,2832.00
2023-02-08T10:46:52.053Z,2912.00
2023-02-08T10:47:47.725Z,2996.00
2023-02-08T10:48:49.198Z,2960.00
2023-02-08T10:49:47.333Z,2976.00
2023-02-08T10:50:49.176Z,2980.00
2023-02-08T10:52:49.194Z,2936.00
2023-02-08T10:53:49.156Z,2940.00
2023-02-08T10:54:49.167Z,2952.00
2023-02-08T10:55:49.157Z,2928.00
2023-02-08T10:56:49.178Z,2768.00
2023-02-08T10:57:49.162Z,2668.00
2023-02-08T10:58:49.158Z,2684.00
2023-02-08T10:59:49.163Z,2904.00
2023-02-08T11:00:49.228Z,3056.00
2023-02-08T11:01:49.170Z,3056.00
2023-02-08T11:02:49.186Z,3036.00
2023-02-08T11:03:49.175Z,2964.00
2023-02-08T11:04:49.162Z,2792.00
2023-02-08T11:05:49.156Z,2624.00
2023-02-08T11:06:49.171Z,2592.00
2023-02-08T11:07:49.174Z,2624.00
2023-02-08T11:08:49.184Z,2568.00
2023-02-08T11:09:49.179Z,2524.00
2023-02-08T11:10:49.174Z,2564.00
2023-02-08T11:11:49.200Z,2716.00
2023-02-08T11:12:49.167Z,2828.00
2023-02-08T11:13:49.181Z,2804.00
2023-02-08T11:14:49.196Z,2460.00
2023-02-08T11:15:49.169Z,2316.00
2023-02-08T11:16:48.640Z,2440.00
2023-02-08T11:17:49.200Z,2524.00
2023-02-08T11:18:47.332Z,2656.00
2023-02-08T11:19:48.693Z,2512.00
2023-02-08T11:20:47.322Z,2912.00
2023-02-08T11:21:47.318Z,3232.00
2023-02-08T11:22:47.325Z,3096.00
2023-02-08T11:23:49.196Z,2800.00
2023-02-08T11:24:49.181Z,2668.00
2023-02-08T11:25:49.178Z,2608.00
2023-02-08T11:26:49.184Z,2348.00
2023-02-08T11:27:49.254Z,2324.00
2023-02-08T11:28:49.184Z,2468.00
2023-02-08T11:29:49.197Z,2556.00
2023-02-08T11:30:49.209Z,2640.00
2023-02-08T11:31:49.260Z,2736.00
2023-02-08T11:32:49.222Z,2964.00
2023-02-08T11:33:49.189Z,3124.00
2023-02-08T11:34:49.190Z,3080.00
2023-02-08T11:35:49.189Z,2780.00
2023-02-08T11:36:49.207Z,2476.00
2023-02-08T11:37:49.214Z,2416.00
2023-02-08T11:38:49.198Z,2576.00
2023-02-08T11:39:49.199Z,2532.00
2023-02-08T11:40:49.209Z,2444.00
2023-02-08T11:41:49.194Z,2424.00
2023-02-08T11:42:49.213Z,2488.00
2023-02-08T11:43:49.220Z,2832.00
2023-02-08T11:44:49.294Z,3004.00
2023-02-08T11:45:49.278Z,3124.00
2023-02-08T11:46:49.222Z,3280.00
2023-02-08T11:47:49.261Z,3500.00
2023-02-08T11:48:49.249Z,3416.00
2023-02-08T11:49:49.161Z,3032.00
2023-02-08T11:50:47.553Z,2620.00
2023-02-08T11:51:47.324Z,2548.00
2023-02-08T11:52:47.324Z,2548.00
2023-02-08T11:53:49.225Z,2484.00
2023-02-08T11:54:47.307Z,2812.00
2023-02-08T11:55:47.304Z,3140.00
2023-02-08T11:56:47.315Z,3576.00
2023-02-08T11:57:48.307Z,3776.00
2023-02-08T11:58:49.228Z,4060.00
2023-02-08T11:59:48.322Z,4504.00
2023-02-08T12:00:47.313Z,5032.00
2023-02-08T12:01:49.304Z,5292.00
2023-02-08T12:02:47.315Z,5284.00
2023-02-08T12:03:49.304Z,5392.00
2023-02-08T12:04:47.331Z,5508.00
2023-02-08T12:05:47.306Z,5512.00
2023-02-08T12:06:49.227Z,5260.00
2023-02-08T12:07:48.740Z,4784.00
2023-02-08T12:08:49.328Z,3560.00
2023-02-08T12:09:47.305Z,3032.00
2023-02-08T12:10:52.261Z,3420.00
2023-02-08T12:11:47.315Z,3944.00
2023-02-08T12:12:49.233Z,4720.00
2023-02-08T12:13:48.781Z,5228.00
2023-02-08T12:14:49.231Z,5608.00
2023-02-08T12:15:58.332Z,5740.00
2023-02-08T12:16:49.407Z,5632.00
2023-02-08T12:17:49.264Z,5568.00
2023-02-08T12:18:48.711Z,5972.00
2023-02-08T12:19:47.484Z,6180.00
2023-02-08T12:20:47.631Z,6472.00
2023-02-08T12:21:49.255Z,7008.00
2023-02-08T12:22:47.850Z,7532.00
2023-02-08T12:23:49.270Z,7700.00
2023-02-08T12:24:47.313Z,7928.00
2023-02-08T12:25:47.581Z,7932.00
2023-02-08T12:26:49.257Z,7984.00
2023-02-08T12:27:49.365Z,8184.00
2023-02-08T12:28:49.320Z,8504.00
2023-02-08T12:29:49.271Z,8532.00
2023-02-08T12:30:49.348Z,7992.00
2023-02-08T12:31:49.288Z,8236.00
2023-02-08T12:32:49.283Z,8764.00
2023-02-08T12:33:49.274Z,8812.00
2023-02-08T12:34:49.304Z,8468.00
2023-02-08T12:36:03.257Z,8312.00
2023-02-08T12:36:49.293Z,8600.00
2023-02-08T12:37:49.289Z,9112.00
2023-02-08T12:38:49.250Z,9752.00
2023-02-08T12:39:49.279Z,9976.00
2023-02-08T12:40:49.310Z,10080.00
2023-02-08T12:41:49.256Z,10188.00
2023-02-08T12:42:49.255Z,10256.00
2023-02-08T12:43:49.271Z,10316.00
2023-02-08T12:44:49.272Z,10392.00
2023-02-08T12:45:49.277Z,10428.00
2023-02-08T12:46:49.257Z,10508.00
2023-02-08T12:48:03.080Z,10608.00
2023-02-08T12:48:49.276Z,10684.00
2023-02-08T12:49:49.263Z,10780.00
2023-02-08T12:50:49.264Z,10904.00
2023-02-08T12:51:49.279Z,10996.00
2023-02-08T12:52:47.395Z,11092.00
2023-02-08T12:53:49.290Z,11196.00
2023-02-08T12:54:49.496Z,11236.00
2023-02-08T12:55:47.365Z,11300.00
2023-02-08T12:57:00.334Z,11328.00
2023-02-08T12:57:47.373Z,11364.00
2023-02-08T12:58:47.382Z,11396.00
2023-02-08T12:59:47.404Z,11504.00
2023-02-08T13:00:48.297Z,11740.00
2023-02-08T13:01:49.295Z,12232.00
2023-02-08T13:02:49.343Z,13132.00
2023-02-08T13:03:49.340Z,14428.00
2023-02-08T13:04:49.292Z,42240.00
2023-02-08T13:06:01.653Z,55648.00
2023-02-08T13:06:49.298Z,35232.00
2023-02-08T13:07:49.283Z,20672.00
2023-02-08T13:08:47.432Z,14608.00
2023-02-08T13:09:49.312Z,16032.00
2023-02-08T13:10:49.307Z,27872.00
2023-02-08T13:11:49.372Z,39168.00
2023-02-08T13:12:47.425Z,41248.00
2023-02-08T13:13:49.297Z,42976.00
2023-02-08T13:14:47.451Z,42880.00
2023-02-08T13:15:47.763Z,45568.00
2023-02-08T13:16:50.309Z,48224.00
2023-02-08T13:17:47.466Z,46816.00
2023-02-08T13:18:47.465Z,46176.00
2023-02-08T13:19:59.608Z,46944.00
2023-02-08T13:20:49.314Z,48000.00
2023-02-08T13:21:47.468Z,45312.00
2023-02-08T13:22:47.476Z,44800.00
2023-02-08T13:23:52.895Z,44192.00
2023-02-08T13:24:52.457Z,44320.00
2023-02-08T13:25:49.336Z,44448.00
2023-02-08T13:26:49.347Z,45504.00
2023-02-08T13:27:47.509Z,46080.00
2023-02-08T13:28:49.332Z,42464.00
2023-02-08T13:29:47.511Z,42624.00
2023-02-08T13:30:49.399Z,44192.00
2023-02-08T13:31:49.359Z,44064.00
2023-02-08T13:32:47.514Z,43808.00
2023-02-08T13:34:00.933Z,44160.00
2023-02-08T13:34:49.355Z,45408.00
2023-02-08T13:35:47.528Z,46208.00
2023-02-08T13:36:47.537Z,46528.00
2023-02-08T13:37:49.324Z,45728.00
2023-02-08T13:38:47.563Z,45984.00
2023-02-08T13:39:49.339Z,45024.00
2023-02-08T13:40:47.600Z,45376.00
2023-02-08T13:41:49.364Z,44832.00
2023-02-08T13:42:49.343Z,43776.00
2023-02-08T13:43:47.588Z,44288.00
2023-02-08T13:44:47.575Z,44480.00
2023-02-08T13:45:47.584Z,44768.00
2023-02-08T13:46:49.363Z,44704.00
2023-02-08T13:47:47.604Z,44096.00
2023-02-08T13:48:49.338Z,44992.00
2023-02-08T13:49:49.372Z,47968.00
2023-02-08T13:50:49.385Z,45824.00
2023-02-08T13:51:49.364Z,46176.00
2023-02-08T13:52:48.898Z,44576.00
2023-02-08T13:53:47.636Z,44448.00
2023-02-08T13:54:47.628Z,43200.00
2023-02-08T13:55:49.360Z,41600.00
2023-02-08T13:56:49.409Z,42240.00
2023-02-08T13:57:47.655Z,43360.00
2023-02-08T13:58:47.647Z,43904.00
2023-02-08T13:59:47.652Z,42784.00
2023-02-08T14:00:47.658Z,41280.00
2023-02-08T14:01:49.428Z,41312.00
2023-02-08T14:02:49.377Z,42048.00
2023-02-08T14:03:49.382Z,41824.00
2023-02-08T14:04:49.383Z,41248.00
2023-02-08T14:05:49.366Z,40928.00
2023-02-08T14:06:49.385Z,39584.00
2023-02-08T14:08:49.384Z,38208.00
2023-02-08T14:09:49.365Z,38080.00
2023-02-08T14:10:49.384Z,39008.00
2023-02-08T14:11:49.383Z,39168.00
2023-02-08T14:12:49.423Z,37984.00
2023-02-08T14:13:49.384Z,37920.00
2023-02-08T14:14:49.385Z,38432.00
2023-02-08T14:15:49.408Z,38496.00
2023-02-08T14:16:49.375Z,39360.00
2023-02-08T14:17:49.379Z,37760.00
2023-02-08T14:18:47.746Z,36096.00
2023-02-08T14:19:49.400Z,35840.00
2023-02-08T14:20:47.763Z,35520.00
2023-02-08T14:21:47.777Z,36000.00
2023-02-08T14:22:47.760Z,36704.00
2023-02-08T14:23:47.794Z,37728.00
2023-02-08T14:24:49.392Z,36704.00
2023-02-08T14:25:47.807Z,36096.00
2023-02-08T14:26:47.796Z,34944.00
2023-02-08T14:27:47.787Z,35264.00
2023-02-08T14:28:47.823Z,35904.00
2023-02-08T14:29:49.409Z,35872.00
2023-02-08T14:30:48.041Z,34912.00
2023-02-08T14:31:48.008Z,34176.00
2023-02-08T14:32:49.400Z,34752.00
2023-02-08T14:33:49.428Z,34016.00
2023-02-08T14:34:49.402Z,32608.00
2023-02-08T14:35:49.389Z,31648.00
2023-02-08T14:36:49.388Z,30272.00
2023-02-08T14:37:47.831Z,30144.00
2023-02-08T14:38:49.392Z,29408.00
2023-02-08T14:39:49.410Z,27968.00
2023-02-08T14:40:49.398Z,27712.00
2023-02-08T14:41:49.396Z,27392.00
2023-02-08T14:42:49.431Z,27456.00
2023-02-08T14:43:47.876Z,27904.00
2023-02-08T14:45:48.214Z,27296.00
2023-02-08T14:46:49.491Z,26688.00
2023-02-08T14:47:49.407Z,27296.00
2023-02-08T14:48:50.424Z,28192.00
2023-02-08T14:49:49.404Z,26816.00
2023-02-08T14:50:47.888Z,26624.00
2023-02-08T14:51:47.886Z,25696.00
2023-02-08T14:52:47.892Z,24384.00
2023-02-08T14:53:47.923Z,23424.00
2023-02-08T14:54:49.430Z,22144.00
2023-02-08T14:55:47.899Z,21600.00
2023-02-08T14:56:47.905Z,21216.00
2023-02-08T14:57:47.906Z,21088.00
2023-02-08T14:58:49.434Z,19680.00
2023-02-08T14:59:47.910Z,19584.00
2023-02-08T15:00:47.991Z,20384.00
2023-02-08T15:01:47.932Z,18400.00
2023-02-08T15:02:49.445Z,11024.00
2023-02-08T15:03:47.968Z,4096.00
2023-02-08T15:04:49.439Z,2948.00
2023-02-08T15:05:47.929Z,2780.00
2023-02-08T15:06:51.102Z,2644.00
2023-02-08T15:07:49.441Z,2528.00
2023-02-08T15:08:47.932Z,2428.00
2023-02-08T15:09:47.940Z,2340.00
2023-02-08T15:10:47.941Z,2264.00
2023-02-08T15:11:49.930Z,2196.00
2023-02-08T15:12:49.471Z,2112.00
2023-02-08T15:13:47.941Z,2028.00
2023-02-08T15:14:49.467Z,1944.00
2023-02-08T15:15:47.949Z,1860.00
2023-02-08T15:16:49.557Z,1788.00
2023-02-08T15:17:48.980Z,1720.00
2023-02-08T15:18:48.957Z,1644.00
2023-02-08T15:19:49.473Z,1608.00
2023-02-08T15:20:47.968Z,1588.00
2023-02-08T15:21:49.962Z,1556.00
2023-02-08T15:22:47.979Z,1520.00
2023-02-08T15:23:49.962Z,1488.00
2023-02-08T15:24:49.962Z,1460.00
2023-02-08T15:25:48.957Z,1432.00
2023-02-08T15:26:47.957Z,1408.00
2023-02-08T15:27:48.999Z,1380.00
2023-02-08T15:28:49.968Z,1352.00
2023-02-08T15:29:48.929Z,1324.00
2023-02-08T15:30:47.990Z,1304.00
2023-02-08T15:31:48.041Z,1280.00
2023-02-08T15:32:47.955Z,1256.00
2023-02-08T15:33:49.497Z,1236.00
2023-02-08T15:34:48.954Z,1212.00
2023-02-08T15:35:49.462Z,1192.00
2023-02-08T15:36:49.458Z,1164.00
2023-02-08T15:37:49.476Z,1140.00
2023-02-08T15:38:49.479Z,1112.00
2023-02-08T15:39:49.470Z,1088.00
2023-02-08T15:40:49.488Z,1068.00
2023-02-08T15:41:49.474Z,1044.00
2023-02-08T15:42:49.461Z,1024.00
2023-02-08T15:43:49.456Z,996.00
2023-02-08T15:44:49.462Z,972.00
2023-02-08T15:45:49.553Z,948.00
2023-02-08T15:46:49.482Z,924.00
2023-02-08T15:47:49.467Z,904.00
2023-02-08T15:48:48.933Z,884.00
2023-02-08T15:49:49.504Z,860.00
2023-02-08T15:50:49.482Z,836.00
2023-02-08T15:51:49.485Z,812.00
2023-02-08T15:52:49.480Z,792.00
2023-02-08T15:53:48.064Z,768.00
2023-02-08T15:54:49.484Z,744.00
2023-02-08T15:55:47.924Z,720.00
2023-02-08T15:56:47.932Z,696.00
2023-02-08T15:57:48.999Z,676.00
2023-02-08T15:58:47.926Z,652.00
2023-02-08T15:59:47.922Z,636.00
2023-02-08T16:00:49.013Z,612.00
2023-02-08T16:13:00.341Z,360.00
2023-02-08T16:13:59.366Z,344.00
2023-02-08T16:14:59.838Z,328.00
2023-02-08T16:16:08.467Z,304.00
2023-02-08T16:16:59.438Z,288.00
2023-02-08T16:17:58.337Z,272.00
2023-02-08T16:19:00.322Z,256.00
2023-02-08T16:20:00.314Z,236.00
2023-02-08T16:20:59.386Z,220.00
2023-02-08T16:21:58.327Z,204.00
2023-02-08T16:23:00.310Z,188.00
2023-02-08T16:23:59.813Z,176.00
2023-02-08T16:24:58.319Z,160.00
2023-02-08T16:25:59.829Z,148.00
2023-02-08T16:26:59.833Z,136.00
2023-02-08T16:27:59.863Z,128.00
2023-02-08T16:28:59.904Z,120.00
2023-02-08T16:29:59.836Z,108.00
2023-02-08T16:30:59.489Z,100.00
2023-02-08T16:31:58.317Z,88.00
2023-02-08T16:32:58.298Z,80.00
2023-02-08T16:33:59.302Z,72.00
2023-02-08T16:34:59.287Z,64.00
2023-02-08T16:35:59.345Z,56.00
2023-02-08T16:36:59.333Z,52.00
2023-02-08T16:37:58.272Z,44.00
2023-02-08T16:38:58.280Z,36.00
2023-02-08T16:39:58.277Z,32.00
2023-02-08T16:40:58.267Z,28.00
2023-02-08T16:42:14.544Z,28.00
2023-02-08T16:42:58.264Z,20.00
2023-02-08T16:43:58.254Z,20.00
2023-02-08T16:44:59.856Z,16.00
2023-02-08T16:45:59.848Z,12.00
2023-02-08T16:46:59.858Z,12.00
2023-02-08T16:48:04.267Z,12.00
2023-02-08T16:48:59.843Z,8.00
2023-02-08T16:49:59.847Z,8.00
2023-02-08T16:50:59.837Z,8.00
2023-02-08T16:51:59.225Z,4.00
2023-02-08T16:52:59.869Z,4.00
2023-02-08T16:53:59.226Z,4.00
2023-02-08T16:54:59.871Z,4.00
2023-02-08T16:55:58.213Z,0.00